Terminal Aerodrome Forecast
Issued by NWS Buffalo, NY

Home | Current Version | Previous Version | Text Only | Print | Product List | Glossary On
Versions: 1 2 3 4 5 6 7 8 9 10 11 12 13 14 15 16 17 18 19 20
648
FTUS41 KBUF 260529
TAFART
TAF
KART 260529Z 2606/2706 08005KT P6SM -SHRA BKN030 OVC050
     FM260800 06005KT P6SM OVC035
     FM261000 05004KT P6SM OVC025
     FM261700 03004KT P6SM BKN040
     FM270200 14004KT P6SM SCT035
     FM270400 16006KT P6SM FEW200=

USA.gov is the U.S. government's official web portal to all federal, state and local government web resources and services.